< < Back
Terminal Aerodrome Forecast


Current Version              Previous Versions:   1  2  3  4  5  6  7  8  9  

Terminal Aerodrome Forecast

013
FTUS42 KFFC 221100
TAFCSG
TAF
KCSG 221137Z 2212/2312 28003KT P6SM SCT040
     FM221500 33005KT P6SM VCSH BKN040
      TEMPO 2215/2219 4SM -TSRA BKN030CB
     FM222200 34006KT P6SM FEW040 SCT250
     FM230000 03005KT P6SM SCT250
     FM230600 03004KT P6SM SCT050=



Latest METAR

630
SAUS70 KWBC 221600 RRA
MTRCSG
METAR KCSG 221551Z 00000KT 4SM VCTS -RA BR FEW007 SCT065 OVC100 18/17
A3007 RMK AO2 LTG DSNT NE TSE37B42 SLP179 P0004 T01780167


USA.gov is the U.S. government's official web portal to all federal, state and local government web resources and services.